sensor_id;sensor_type;location;lat;lon;timestamp;P1;durP1;ratioP1;P2;durP2;ratioP2
20629;SDS011;17386;43.846;25.950;2022-08-19T00:02:59;11.10;;;8.30;;
20629;SDS011;17386;43.846;25.950;2022-08-19T00:05:24;11.85;;;8.10;;
20629;SDS011;17386;43.846;25.950;2022-08-19T00:07:50;13.93;;;9.00;;
20629;SDS011;17386;43.846;25.950;2022-08-19T00:10:16;12.63;;;8.27;;
20629;SDS011;17386;43.846;25.950;2022-08-19T00:12:42;12.93;;;7.72;;
20629;SDS011;17386;43.846;25.950;2022-08-19T00:15:09;15.15;;;8.60;;
20629;SDS011;17386;43.846;25.950;2022-08-19T00:17:37;13.82;;;8.30;;
20629;SDS011;17386;43.846;25.950;2022-08-19T00:20:03;11.15;;;8.55;;
20629;SDS011;17386;43.846;25.950;2022-08-19T00:22:30;11.35;;;8.70;;
20629;SDS011;17386;43.846;25.950;2022-08-19T00:24:56;12.07;;;9.07;;
20629;SDS011;17386;43.846;25.950;2022-08-19T00:27:21;14.60;;;8.70;;
20629;SDS011;17386;43.846;25.950;2022-08-19T00:29:47;12.68;;;8.75;;
20629;SDS011;17386;43.846;25.950;2022-08-19T00:32:12;11.27;;;8.18;;
20629;SDS011;17386;43.846;25.950;2022-08-19T00:34:37;17.25;;;9.10;;
20629;SDS011;17386;43.846;25.950;2022-08-19T00:37:03;11.45;;;8.68;;
20629;SDS011;17386;43.846;25.950;2022-08-19T00:39:28;13.15;;;9.48;;
20629;SDS011;17386;43.846;25.950;2022-08-19T00:41:55;12.93;;;9.18;;
20629;SDS011;17386;43.846;25.950;2022-08-19T00:46:50;13.68;;;8.77;;
20629;SDS011;17386;43.846;25.950;2022-08-19T00:51:48;13.70;;;8.48;;
20629;SDS011;17386;43.846;25.950;2022-08-19T00:54:17;12.82;;;9.80;;
20629;SDS011;17386;43.846;25.950;2022-08-19T00:56:43;14.65;;;9.32;;
20629;SDS011;17386;43.846;25.950;2022-08-19T00:59:10;14.68;;;10.57;;
20629;SDS011;17386;43.846;25.950;2022-08-19T01:01:36;14.20;;;11.20;;
20629;SDS011;17386;43.846;25.950;2022-08-19T01:04:04;14.25;;;9.68;;
20629;SDS011;17386;43.846;25.950;2022-08-19T01:06:30;12.80;;;9.55;;
20629;SDS011;17386;43.846;25.950;2022-08-19T01:08:57;12.55;;;8.35;;
20629;SDS011;17386;43.846;25.950;2022-08-19T01:11:24;12.23;;;8.48;;
20629;SDS011;17386;43.846;25.950;2022-08-19T01:13:52;13.50;;;8.43;;
20629;SDS011;17386;43.846;25.950;2022-08-19T01:16:19;14.98;;;8.95;;
20629;SDS011;17386;43.846;25.950;2022-08-19T01:18:46;12.10;;;9.07;;
20629;SDS011;17386;43.846;25.950;2022-08-19T01:23:53;12.30;;;9.65;;
20629;SDS011;17386;43.846;25.950;2022-08-19T01:26:20;12.43;;;8.77;;
20629;SDS011;17386;43.846;25.950;2022-08-19T01:28:49;13.57;;;8.90;;
20629;SDS011;17386;43.846;25.950;2022-08-19T01:31:18;12.65;;;9.93;;
20629;SDS011;17386;43.846;25.950;2022-08-19T01:33:46;12.50;;;9.35;;
20629;SDS011;17386;43.846;25.950;2022-08-19T01:36:15;15.65;;;10.70;;
20629;SDS011;17386;43.846;25.950;2022-08-19T01:38:47;17.05;;;10.30;;
20629;SDS011;17386;43.846;25.950;2022-08-19T01:43:40;17.88;;;11.10;;
20629;SDS011;17386;43.846;25.950;2022-08-19T01:46:06;18.25;;;10.70;;
20629;SDS011;17386;43.846;25.950;2022-08-19T01:48:36;14.95;;;10.38;;
20629;SDS011;17386;43.846;25.950;2022-08-19T01:51:06;13.30;;;9.77;;
20629;SDS011;17386;43.846;25.950;2022-08-19T01:53:33;16.77;;;10.32;;
20629;SDS011;17386;43.846;25.950;2022-08-19T01:55:59;14.85;;;10.95;;
20629;SDS011;17386;43.846;25.950;2022-08-19T01:58:30;17.42;;;11.55;;
20629;SDS011;17386;43.846;25.950;2022-08-19T02:01:00;18.75;;;12.10;;
20629;SDS011;17386;43.846;25.950;2022-08-19T02:03:27;17.17;;;11.63;;
20629;SDS011;17386;43.846;25.950;2022-08-19T02:05:57;16.38;;;12.00;;
20629;SDS011;17386;43.846;25.950;2022-08-19T02:08:28;17.50;;;11.48;;
20629;SDS011;17386;43.846;25.950;2022-08-19T02:10:54;19.23;;;11.18;;
20629;SDS011;17386;43.846;25.950;2022-08-19T02:13:20;19.52;;;10.98;;
20629;SDS011;17386;43.846;25.950;2022-08-19T02:15:46;19.38;;;11.77;;
20629;SDS011;17386;43.846;25.950;2022-08-19T02:18:12;15.40;;;11.45;;
20629;SDS011;17386;43.846;25.950;2022-08-19T02:20:38;15.52;;;10.15;;
20629;SDS011;17386;43.846;25.950;2022-08-19T02:23:05;19.00;;;11.35;;
20629;SDS011;17386;43.846;25.950;2022-08-19T02:25:31;20.13;;;11.65;;
20629;SDS011;17386;43.846;25.950;2022-08-19T02:27:56;16.05;;;11.20;;
20629;SDS011;17386;43.846;25.950;2022-08-19T02:30:22;17.55;;;11.25;;
20629;SDS011;17386;43.846;25.950;2022-08-19T02:32:49;15.65;;;10.68;;
20629;SDS011;17386;43.846;25.950;2022-08-19T02:35:15;18.80;;;11.23;;
20629;SDS011;17386;43.846;25.950;2022-08-19T02:37:41;17.60;;;12.10;;
20629;SDS011;17386;43.846;25.950;2022-08-19T02:40:26;18.20;;;11.43;;
20629;SDS011;17386;43.846;25.950;2022-08-19T02:42:52;17.40;;;11.40;;
20629;SDS011;17386;43.846;25.950;2022-08-19T02:45:18;15.68;;;11.18;;
20629;SDS011;17386;43.846;25.950;2022-08-19T02:47:44;16.65;;;10.90;;
20629;SDS011;17386;43.846;25.950;2022-08-19T02:50:09;14.90;;;11.23;;
20629;SDS011;17386;43.846;25.950;2022-08-19T02:52:35;16.70;;;11.70;;
20629;SDS011;17386;43.846;25.950;2022-08-19T02:55:01;16.10;;;12.02;;
20629;SDS011;17386;43.846;25.950;2022-08-19T02:57:27;17.17;;;11.00;;
20629;SDS011;17386;43.846;25.950;2022-08-19T02:59:52;18.33;;;11.55;;
20629;SDS011;17386;43.846;25.950;2022-08-19T03:02:18;17.48;;;11.82;;
20629;SDS011;17386;43.846;25.950;2022-08-19T03:04:44;19.08;;;11.52;;
20629;SDS011;17386;43.846;25.950;2022-08-19T03:07:12;17.95;;;10.48;;
20629;SDS011;17386;43.846;25.950;2022-08-19T03:09:38;19.42;;;12.68;;
20629;SDS011;17386;43.846;25.950;2022-08-19T03:12:04;15.52;;;11.80;;
20629;SDS011;17386;43.846;25.950;2022-08-19T03:14:30;21.13;;;12.38;;
20629;SDS011;17386;43.846;25.950;2022-08-19T03:16:57;16.58;;;11.60;;
20629;SDS011;17386;43.846;25.950;2022-08-19T03:19:22;17.60;;;11.93;;
20629;SDS011;17386;43.846;25.950;2022-08-19T03:21:48;19.05;;;10.95;;
20629;SDS011;17386;43.846;25.950;2022-08-19T03:24:14;22.90;;;12.05;;
20629;SDS011;17386;43.846;25.950;2022-08-19T03:26:41;18.58;;;12.25;;
20629;SDS011;17386;43.846;25.950;2022-08-19T03:29:09;19.45;;;11.45;;
20629;SDS011;17386;43.846;25.950;2022-08-19T03:31:36;19.23;;;11.70;;
20629;SDS011;17386;43.846;25.950;2022-08-19T03:34:03;19.60;;;11.80;;
20629;SDS011;17386;43.846;25.950;2022-08-19T03:36:29;21.48;;;16.20;;
20629;SDS011;17386;43.846;25.950;2022-08-19T03:38:56;19.40;;;11.75;;
20629;SDS011;17386;43.846;25.950;2022-08-19T03:41:25;18.52;;;10.30;;
20629;SDS011;17386;43.846;25.950;2022-08-19T03:43:53;18.23;;;11.00;;
20629;SDS011;17386;43.846;25.950;2022-08-19T03:46:20;19.40;;;11.35;;
20629;SDS011;17386;43.846;25.950;2022-08-19T03:48:48;19.35;;;11.80;;
20629;SDS011;17386;43.846;25.950;2022-08-19T03:51:19;15.95;;;10.70;;
20629;SDS011;17386;43.846;25.950;2022-08-19T03:53:45;18.92;;;12.00;;
20629;SDS011;17386;43.846;25.950;2022-08-19T03:56:12;21.00;;;11.90;;
20629;SDS011;17386;43.846;25.950;2022-08-19T03:58:38;18.10;;;11.70;;
20629;SDS011;17386;43.846;25.950;2022-08-19T04:01:15;19.70;;;11.18;;
20629;SDS011;17386;43.846;25.950;2022-08-19T04:03:43;22.10;;;11.30;;
20629;SDS011;17386;43.846;25.950;2022-08-19T04:08:38;21.15;;;11.38;;
20629;SDS011;17386;43.846;25.950;2022-08-19T04:11:08;18.50;;;10.60;;
20629;SDS011;17386;43.846;25.950;2022-08-19T04:13:35;21.65;;;11.35;;
20629;SDS011;17386;43.846;25.950;2022-08-19T04:16:00;16.25;;;10.95;;
20629;SDS011;17386;43.846;25.950;2022-08-19T04:18:25;20.08;;;11.45;;
20629;SDS011;17386;43.846;25.950;2022-08-19T04:20:51;14.60;;;9.95;;
20629;SDS011;17386;43.846;25.950;2022-08-19T04:23:16;17.50;;;10.35;;
20629;SDS011;17386;43.846;25.950;2022-08-19T04:25:43;15.35;;;10.82;;
20629;SDS011;17386;43.846;25.950;2022-08-19T04:28:10;13.95;;;10.60;;
20629;SDS011;17386;43.846;25.950;2022-08-19T04:30:46;14.35;;;9.23;;
20629;SDS011;17386;43.846;25.950;2022-08-19T04:33:14;15.63;;;10.50;;
20629;SDS011;17386;43.846;25.950;2022-08-19T04:35:43;15.57;;;10.50;;
20629;SDS011;17386;43.846;25.950;2022-08-19T04:38:10;17.48;;;10.40;;
20629;SDS011;17386;43.846;25.950;2022-08-19T04:41:09;20.67;;;10.55;;
20629;SDS011;17386;43.846;25.950;2022-08-19T04:43:46;19.00;;;10.40;;
20629;SDS011;17386;43.846;25.950;2022-08-19T04:46:15;19.95;;;10.63;;
20629;SDS011;17386;43.846;25.950;2022-08-19T04:48:41;17.13;;;11.52;;
20629;SDS011;17386;43.846;25.950;2022-08-19T04:51:09;16.92;;;10.80;;
20629;SDS011;17386;43.846;25.950;2022-08-19T04:53:38;21.55;;;11.52;;
20629;SDS011;17386;43.846;25.950;2022-08-19T04:56:06;23.00;;;13.90;;
20629;SDS011;17386;43.846;25.950;2022-08-19T04:58:35;16.50;;;11.10;;
20629;SDS011;17386;43.846;25.950;2022-08-19T05:01:01;20.33;;;11.00;;
20629;SDS011;17386;43.846;25.950;2022-08-19T05:03:27;20.25;;;10.95;;
20629;SDS011;17386;43.846;25.950;2022-08-19T05:05:55;15.40;;;10.25;;
20629;SDS011;17386;43.846;25.950;2022-08-19T05:08:20;17.73;;;10.57;;
20629;SDS011;17386;43.846;25.950;2022-08-19T05:10:50;20.85;;;10.57;;
20629;SDS011;17386;43.846;25.950;2022-08-19T05:13:17;18.88;;;10.65;;
20629;SDS011;17386;43.846;25.950;2022-08-19T05:15:44;14.40;;;10.48;;
20629;SDS011;17386;43.846;25.950;2022-08-19T05:18:21;17.55;;;10.57;;
20629;SDS011;17386;43.846;25.950;2022-08-19T05:21:10;17.95;;;11.68;;
20629;SDS011;17386;43.846;25.950;2022-08-19T05:23:55;21.35;;;11.88;;
20629;SDS011;17386;43.846;25.950;2022-08-19T05:26:22;20.85;;;11.82;;
20629;SDS011;17386;43.846;25.950;2022-08-19T05:28:48;21.70;;;13.13;;
20629;SDS011;17386;43.846;25.950;2022-08-19T05:31:13;17.13;;;12.07;;
20629;SDS011;17386;43.846;25.950;2022-08-19T05:33:39;22.40;;;12.63;;
20629;SDS011;17386;43.846;25.950;2022-08-19T05:36:05;20.92;;;13.60;;
20629;SDS011;17386;43.846;25.950;2022-08-19T05:38:32;20.15;;;13.40;;
20629;SDS011;17386;43.846;25.950;2022-08-19T05:41:06;23.38;;;12.82;;
20629;SDS011;17386;43.846;25.950;2022-08-19T05:43:35;19.40;;;13.38;;
20629;SDS011;17386;43.846;25.950;2022-08-19T05:46:01;23.00;;;13.38;;
20629;SDS011;17386;43.846;25.950;2022-08-19T05:48:28;23.35;;;13.90;;
20629;SDS011;17386;43.846;25.950;2022-08-19T05:50:54;23.65;;;14.45;;
20629;SDS011;17386;43.846;25.950;2022-08-19T05:53:19;21.52;;;13.88;;
20629;SDS011;17386;43.846;25.950;2022-08-19T05:55:44;22.85;;;14.05;;
20629;SDS011;17386;43.846;25.950;2022-08-19T05:58:10;24.42;;;15.23;;
20629;SDS011;17386;43.846;25.950;2022-08-19T06:00:37;22.73;;;14.50;;
20629;SDS011;17386;43.846;25.950;2022-08-19T06:03:05;20.60;;;14.02;;
20629;SDS011;17386;43.846;25.950;2022-08-19T06:05:31;25.35;;;14.05;;
20629;SDS011;17386;43.846;25.950;2022-08-19T06:07:56;22.85;;;12.93;;
20629;SDS011;17386;43.846;25.950;2022-08-19T06:12:49;23.38;;;12.95;;
20629;SDS011;17386;43.846;25.950;2022-08-19T06:15:14;25.55;;;13.85;;
20629;SDS011;17386;43.846;25.950;2022-08-19T06:17:40;25.83;;;13.27;;
20629;SDS011;17386;43.846;25.950;2022-08-19T06:20:10;26.75;;;14.38;;
20629;SDS011;17386;43.846;25.950;2022-08-19T06:22:41;27.52;;;14.43;;
20629;SDS011;17386;43.846;25.950;2022-08-19T06:25:08;191.00;;;27.38;;
20629;SDS011;17386;43.846;25.950;2022-08-19T06:27:34;69.55;;;17.90;;
20629;SDS011;17386;43.846;25.950;2022-08-19T06:30:02;21.10;;;13.88;;
20629;SDS011;17386;43.846;25.950;2022-08-19T06:32:28;31.77;;;14.50;;
20629;SDS011;17386;43.846;25.950;2022-08-19T06:34:54;19.40;;;13.05;;
20629;SDS011;17386;43.846;25.950;2022-08-19T06:37:20;32.20;;;13.73;;
20629;SDS011;17386;43.846;25.950;2022-08-19T06:39:46;24.02;;;12.32;;
20629;SDS011;17386;43.846;25.950;2022-08-19T06:42:13;20.02;;;11.95;;
20629;SDS011;17386;43.846;25.950;2022-08-19T06:44:42;18.80;;;12.32;;
20629;SDS011;17386;43.846;25.950;2022-08-19T06:47:09;26.25;;;14.13;;
20629;SDS011;17386;43.846;25.950;2022-08-19T06:49:37;25.52;;;15.27;;
20629;SDS011;17386;43.846;25.950;2022-08-19T06:52:04;18.95;;;11.48;;
20629;SDS011;17386;43.846;25.950;2022-08-19T06:54:30;19.42;;;10.88;;
20629;SDS011;17386;43.846;25.950;2022-08-19T06:56:57;18.33;;;10.73;;
20629;SDS011;17386;43.846;25.950;2022-08-19T06:59:26;22.98;;;11.50;;
20629;SDS011;17386;43.846;25.950;2022-08-19T07:01:54;19.58;;;11.02;;
20629;SDS011;17386;43.846;25.950;2022-08-19T07:04:22;16.80;;;10.63;;
20629;SDS011;17386;43.846;25.950;2022-08-19T07:06:49;17.13;;;10.57;;
20629;SDS011;17386;43.846;25.950;2022-08-19T07:09:21;17.13;;;9.55;;
20629;SDS011;17386;43.846;25.950;2022-08-19T07:11:48;14.93;;;10.23;;
20629;SDS011;17386;43.846;25.950;2022-08-19T07:14:18;15.80;;;10.48;;
20629;SDS011;17386;43.846;25.950;2022-08-19T07:16:45;16.27;;;9.70;;
20629;SDS011;17386;43.846;25.950;2022-08-19T07:19:13;18.92;;;9.40;;
20629;SDS011;17386;43.846;25.950;2022-08-19T07:21:40;15.65;;;9.80;;
20629;SDS011;17386;43.846;25.950;2022-08-19T07:24:06;14.60;;;9.10;;
20629;SDS011;17386;43.846;25.950;2022-08-19T07:26:33;12.68;;;9.05;;
20629;SDS011;17386;43.846;25.950;2022-08-19T07:29:05;15.77;;;8.60;;
20629;SDS011;17386;43.846;25.950;2022-08-19T07:31:31;12.25;;;7.90;;
20629;SDS011;17386;43.846;25.950;2022-08-19T07:34:01;17.02;;;6.88;;
20629;SDS011;17386;43.846;25.950;2022-08-19T07:36:31;20.90;;;8.05;;
20629;SDS011;17386;43.846;25.950;2022-08-19T07:38:58;10.13;;;7.30;;
20629;SDS011;17386;43.846;25.950;2022-08-19T07:41:26;10.02;;;6.85;;
20629;SDS011;17386;43.846;25.950;2022-08-19T07:43:53;11.45;;;7.65;;
20629;SDS011;17386;43.846;25.950;2022-08-19T07:46:19;12.70;;;7.85;;
20629;SDS011;17386;43.846;25.950;2022-08-19T07:48:48;14.65;;;8.35;;
20629;SDS011;17386;43.846;25.950;2022-08-19T07:51:17;13.20;;;8.57;;
20629;SDS011;17386;43.846;25.950;2022-08-19T07:53:45;10.57;;;7.32;;
20629;SDS011;17386;43.846;25.950;2022-08-19T07:56:13;13.00;;;7.97;;
20629;SDS011;17386;43.846;25.950;2022-08-19T07:58:41;13.75;;;7.55;;
20629;SDS011;17386;43.846;25.950;2022-08-19T08:01:11;14.07;;;8.20;;
20629;SDS011;17386;43.846;25.950;2022-08-19T08:03:38;12.43;;;8.18;;
20629;SDS011;17386;43.846;25.950;2022-08-19T08:06:23;12.77;;;8.93;;
20629;SDS011;17386;43.846;25.950;2022-08-19T08:09:07;14.88;;;7.80;;
20629;SDS011;17386;43.846;25.950;2022-08-19T08:11:40;12.38;;;8.48;;
20629;SDS011;17386;43.846;25.950;2022-08-19T08:14:30;12.55;;;7.45;;
20629;SDS011;17386;43.846;25.950;2022-08-19T08:16:58;14.38;;;7.13;;
20629;SDS011;17386;43.846;25.950;2022-08-19T08:19:24;11.48;;;7.28;;
20629;SDS011;17386;43.846;25.950;2022-08-19T08:21:54;13.05;;;6.82;;
20629;SDS011;17386;43.846;25.950;2022-08-19T08:24:21;12.40;;;7.68;;
20629;SDS011;17386;43.846;25.950;2022-08-19T08:26:53;12.00;;;7.80;;
20629;SDS011;17386;43.846;25.950;2022-08-19T08:29:19;12.88;;;7.68;;
20629;SDS011;17386;43.846;25.950;2022-08-19T08:31:45;13.68;;;8.10;;
20629;SDS011;17386;43.846;25.950;2022-08-19T08:34:11;11.05;;;7.47;;
20629;SDS011;17386;43.846;25.950;2022-08-19T08:36:38;10.30;;;7.22;;
20629;SDS011;17386;43.846;25.950;2022-08-19T08:39:10;10.15;;;7.53;;
20629;SDS011;17386;43.846;25.950;2022-08-19T08:41:44;11.70;;;7.32;;
20629;SDS011;17386;43.846;25.950;2022-08-19T08:44:43;14.90;;;7.97;;
20629;SDS011;17386;43.846;25.950;2022-08-19T08:47:19;9.93;;;7.03;;
20629;SDS011;17386;43.846;25.950;2022-08-19T08:50:48;10.80;;;8.05;;
20629;SDS011;17386;43.846;25.950;2022-08-19T08:53:08;9.30;;;7.43;;
20629;SDS011;17386;43.846;25.950;2022-08-19T08:55:37;12.38;;;7.93;;
20629;SDS011;17386;43.846;25.950;2022-08-19T08:58:06;10.60;;;7.55;;
20629;SDS011;17386;43.846;25.950;2022-08-19T09:00:40;10.68;;;6.88;;
20629;SDS011;17386;43.846;25.950;2022-08-19T09:03:18;16.23;;;7.82;;
20629;SDS011;17386;43.846;25.950;2022-08-19T09:11:04;10.55;;;7.50;;
20629;SDS011;17386;43.846;25.950;2022-08-19T09:16:26;15.25;;;7.78;;
20629;SDS011;17386;43.846;25.950;2022-08-19T09:19:05;12.07;;;8.00;;
20629;SDS011;17386;43.846;25.950;2022-08-19T09:21:32;10.75;;;6.82;;
20629;SDS011;17386;43.846;25.950;2022-08-19T09:23:59;11.05;;;7.15;;
20629;SDS011;17386;43.846;25.950;2022-08-19T09:26:29;12.55;;;8.00;;
20629;SDS011;17386;43.846;25.950;2022-08-19T09:28:57;10.35;;;8.23;;
20629;SDS011;17386;43.846;25.950;2022-08-19T09:31:24;11.43;;;7.75;;
20629;SDS011;17386;43.846;25.950;2022-08-19T09:33:51;14.43;;;7.85;;
20629;SDS011;17386;43.846;25.950;2022-08-19T09:36:18;10.50;;;7.30;;
20629;SDS011;17386;43.846;25.950;2022-08-19T09:38:47;14.48;;;7.65;;
20629;SDS011;17386;43.846;25.950;2022-08-19T09:41:14;10.10;;;7.53;;
20629;SDS011;17386;43.846;25.950;2022-08-19T09:43:42;13.32;;;7.85;;
20629;SDS011;17386;43.846;25.950;2022-08-19T09:46:10;14.10;;;7.15;;
20629;SDS011;17386;43.846;25.950;2022-08-19T09:48:37;10.63;;;8.02;;
20629;SDS011;17386;43.846;25.950;2022-08-19T09:51:07;12.88;;;6.70;;
20629;SDS011;17386;43.846;25.950;2022-08-19T09:53:35;12.25;;;7.65;;
20629;SDS011;17386;43.846;25.950;2022-08-19T09:56:01;14.35;;;8.10;;
20629;SDS011;17386;43.846;25.950;2022-08-19T09:58:27;14.55;;;7.85;;
20629;SDS011;17386;43.846;25.950;2022-08-19T10:00:54;10.38;;;7.45;;
20629;SDS011;17386;43.846;25.950;2022-08-19T10:08:25;10.50;;;7.03;;
20629;SDS011;17386;43.846;25.950;2022-08-19T10:10:53;13.40;;;7.57;;
20629;SDS011;17386;43.846;25.950;2022-08-19T10:15:49;14.18;;;7.50;;
20629;SDS011;17386;43.846;25.950;2022-08-19T10:18:18;11.27;;;7.47;;
20629;SDS011;17386;43.846;25.950;2022-08-19T10:20:46;10.93;;;7.53;;
20629;SDS011;17386;43.846;25.950;2022-08-19T10:25:40;13.63;;;7.18;;
20629;SDS011;17386;43.846;25.950;2022-08-19T10:28:06;9.38;;;6.78;;
20629;SDS011;17386;43.846;25.950;2022-08-19T10:30:32;11.23;;;7.30;;
20629;SDS011;17386;43.846;25.950;2022-08-19T10:32:58;10.23;;;7.10;;
20629;SDS011;17386;43.846;25.950;2022-08-19T10:35:23;12.35;;;7.35;;
20629;SDS011;17386;43.846;25.950;2022-08-19T10:37:54;11.63;;;7.28;;
20629;SDS011;17386;43.846;25.950;2022-08-19T10:40:24;13.18;;;7.30;;
20629;SDS011;17386;43.846;25.950;2022-08-19T10:42:50;11.75;;;7.68;;
20629;SDS011;17386;43.846;25.950;2022-08-19T10:45:16;11.48;;;7.72;;
20629;SDS011;17386;43.846;25.950;2022-08-19T10:47:42;15.27;;;7.38;;
20629;SDS011;17386;43.846;25.950;2022-08-19T10:50:07;36.42;;;14.65;;
20629;SDS011;17386;43.846;25.950;2022-08-19T10:52:51;15.10;;;8.40;;
20629;SDS011;17386;43.846;25.950;2022-08-19T10:55:18;13.05;;;7.18;;
20629;SDS011;17386;43.846;25.950;2022-08-19T10:58:06;13.32;;;7.13;;
20629;SDS011;17386;43.846;25.950;2022-08-19T11:00:39;12.32;;;8.80;;
20629;SDS011;17386;43.846;25.950;2022-08-19T11:03:05;11.75;;;7.63;;
20629;SDS011;17386;43.846;25.950;2022-08-19T11:05:31;10.55;;;7.35;;
20629;SDS011;17386;43.846;25.950;2022-08-19T11:07:56;7.60;;;6.60;;
20629;SDS011;17386;43.846;25.950;2022-08-19T11:10:21;15.45;;;8.57;;
20629;SDS011;17386;43.846;25.950;2022-08-19T11:15:19;8.00;;;6.80;;
20629;SDS011;17386;43.846;25.950;2022-08-19T11:17:45;10.20;;;7.13;;
20629;SDS011;17386;43.846;25.950;2022-08-19T11:20:11;8.38;;;6.85;;
20629;SDS011;17386;43.846;25.950;2022-08-19T11:22:38;11.32;;;6.90;;
20629;SDS011;17386;43.846;25.950;2022-08-19T11:25:04;12.55;;;7.57;;
20629;SDS011;17386;43.846;25.950;2022-08-19T11:27:31;12.13;;;7.20;;
20629;SDS011;17386;43.846;25.950;2022-08-19T11:29:56;10.63;;;7.68;;
20629;SDS011;17386;43.846;25.950;2022-08-19T11:32:22;10.48;;;7.57;;
20629;SDS011;17386;43.846;25.950;2022-08-19T11:34:47;10.90;;;7.65;;
20629;SDS011;17386;43.846;25.950;2022-08-19T11:37:12;14.13;;;7.30;;
20629;SDS011;17386;43.846;25.950;2022-08-19T11:39:38;10.15;;;6.60;;
20629;SDS011;17386;43.846;25.950;2022-08-19T11:42:04;12.48;;;8.30;;
20629;SDS011;17386;43.846;25.950;2022-08-19T11:44:51;14.98;;;7.38;;
20629;SDS011;17386;43.846;25.950;2022-08-19T11:47:17;10.57;;;7.43;;
20629;SDS011;17386;43.846;25.950;2022-08-19T11:49:42;11.63;;;7.60;;
20629;SDS011;17386;43.846;25.950;2022-08-19T11:52:08;10.80;;;7.35;;
20629;SDS011;17386;43.846;25.950;2022-08-19T11:54:34;13.50;;;7.95;;
20629;SDS011;17386;43.846;25.950;2022-08-19T11:56:59;13.30;;;7.00;;
20629;SDS011;17386;43.846;25.950;2022-08-19T11:59:28;13.45;;;7.43;;
20629;SDS011;17386;43.846;25.950;2022-08-19T12:01:54;8.98;;;6.75;;
20629;SDS011;17386;43.846;25.950;2022-08-19T12:04:20;9.38;;;7.10;;
20629;SDS011;17386;43.846;25.950;2022-08-19T12:06:46;12.50;;;7.00;;
20629;SDS011;17386;43.846;25.950;2022-08-19T12:09:11;13.70;;;6.97;;
20629;SDS011;17386;43.846;25.950;2022-08-19T12:11:37;9.57;;;7.72;;
20629;SDS011;17386;43.846;25.950;2022-08-19T12:14:03;10.40;;;7.13;;
20629;SDS011;17386;43.846;25.950;2022-08-19T12:16:29;10.90;;;6.95;;
20629;SDS011;17386;43.846;25.950;2022-08-19T12:18:57;10.38;;;6.40;;
20629;SDS011;17386;43.846;25.950;2022-08-19T12:21:28;9.18;;;5.78;;
20629;SDS011;17386;43.846;25.950;2022-08-19T12:23:55;9.63;;;6.53;;
20629;SDS011;17386;43.846;25.950;2022-08-19T12:26:22;12.60;;;7.57;;
20629;SDS011;17386;43.846;25.950;2022-08-19T12:28:48;10.57;;;6.85;;
20629;SDS011;17386;43.846;25.950;2022-08-19T12:31:14;13.05;;;7.15;;
20629;SDS011;17386;43.846;25.950;2022-08-19T12:33:40;11.30;;;7.38;;
20629;SDS011;17386;43.846;25.950;2022-08-19T12:36:08;11.50;;;6.78;;
20629;SDS011;17386;43.846;25.950;2022-08-19T12:38:36;15.77;;;7.18;;
20629;SDS011;17386;43.846;25.950;2022-08-19T12:41:03;15.40;;;11.30;;
20629;SDS011;17386;43.846;25.950;2022-08-19T12:43:34;8.82;;;6.70;;
20629;SDS011;17386;43.846;25.950;2022-08-19T12:46:00;13.30;;;6.95;;
20629;SDS011;17386;43.846;25.950;2022-08-19T12:48:26;8.48;;;6.50;;
20629;SDS011;17386;43.846;25.950;2022-08-19T12:50:52;10.98;;;7.10;;
20629;SDS011;17386;43.846;25.950;2022-08-19T12:53:18;12.35;;;7.28;;
20629;SDS011;17386;43.846;25.950;2022-08-19T12:55:44;10.93;;;5.97;;
20629;SDS011;17386;43.846;25.950;2022-08-19T12:58:09;10.90;;;9.77;;
20629;SDS011;17386;43.846;25.950;2022-08-19T13:00:35;10.23;;;7.45;;
20629;SDS011;17386;43.846;25.950;2022-08-19T13:03:01;18.10;;;7.75;;
20629;SDS011;17386;43.846;25.950;2022-08-19T13:05:28;8.73;;;6.32;;
20629;SDS011;17386;43.846;25.950;2022-08-19T13:07:56;9.73;;;7.15;;
20629;SDS011;17386;43.846;25.950;2022-08-19T13:10:28;15.15;;;7.20;;
20629;SDS011;17386;43.846;25.950;2022-08-19T13:12:56;13.50;;;7.50;;
20629;SDS011;17386;43.846;25.950;2022-08-19T13:15:24;8.85;;;6.60;;
20629;SDS011;17386;43.846;25.950;2022-08-19T13:17:50;15.75;;;6.80;;
20629;SDS011;17386;43.846;25.950;2022-08-19T13:20:18;9.85;;;6.95;;
20629;SDS011;17386;43.846;25.950;2022-08-19T13:22:46;9.35;;;6.80;;
20629;SDS011;17386;43.846;25.950;2022-08-19T13:25:13;11.93;;;6.68;;
20629;SDS011;17386;43.846;25.950;2022-08-19T13:27:41;12.40;;;7.20;;
20629;SDS011;17386;43.846;25.950;2022-08-19T13:30:08;10.20;;;6.88;;
20629;SDS011;17386;43.846;25.950;2022-08-19T13:32:54;11.60;;;7.15;;
20629;SDS011;17386;43.846;25.950;2022-08-19T13:35:45;12.38;;;7.13;;
20629;SDS011;17386;43.846;25.950;2022-08-19T13:38:19;11.88;;;7.10;;
20629;SDS011;17386;43.846;25.950;2022-08-19T13:40:46;9.10;;;7.00;;
20629;SDS011;17386;43.846;25.950;2022-08-19T13:43:12;11.57;;;7.20;;
20629;SDS011;17386;43.846;25.950;2022-08-19T13:45:38;9.77;;;6.18;;
20629;SDS011;17386;43.846;25.950;2022-08-19T13:48:05;12.68;;;6.78;;
20629;SDS011;17386;43.846;25.950;2022-08-19T13:50:33;11.50;;;6.28;;
20629;SDS011;17386;43.846;25.950;2022-08-19T13:53:00;7.55;;;5.88;;
20629;SDS011;17386;43.846;25.950;2022-08-19T13:55:27;8.02;;;6.20;;
20629;SDS011;17386;43.846;25.950;2022-08-19T13:57:53;8.88;;;5.40;;
20629;SDS011;17386;43.846;25.950;2022-08-19T14:00:20;9.60;;;5.53;;
20629;SDS011;17386;43.846;25.950;2022-08-19T14:02:50;8.63;;;5.88;;
20629;SDS011;17386;43.846;25.950;2022-08-19T14:05:17;8.95;;;5.90;;
20629;SDS011;17386;43.846;25.950;2022-08-19T14:07:43;13.48;;;6.53;;
20629;SDS011;17386;43.846;25.950;2022-08-19T14:10:11;8.07;;;6.20;;
20629;SDS011;17386;43.846;25.950;2022-08-19T14:12:43;10.32;;;5.70;;
20629;SDS011;17386;43.846;25.950;2022-08-19T14:15:10;8.75;;;5.97;;
20629;SDS011;17386;43.846;25.950;2022-08-19T14:17:38;10.27;;;5.88;;
20629;SDS011;17386;43.846;25.950;2022-08-19T14:20:06;9.52;;;6.68;;
20629;SDS011;17386;43.846;25.950;2022-08-19T14:22:35;12.38;;;6.97;;
20629;SDS011;17386;43.846;25.950;2022-08-19T14:25:02;9.35;;;6.55;;
20629;SDS011;17386;43.846;25.950;2022-08-19T14:27:29;12.60;;;7.40;;
20629;SDS011;17386;43.846;25.950;2022-08-19T14:29:55;16.00;;;6.63;;
20629;SDS011;17386;43.846;25.950;2022-08-19T14:32:21;10.30;;;6.47;;
20629;SDS011;17386;43.846;25.950;2022-08-19T14:34:47;14.30;;;6.90;;
20629;SDS011;17386;43.846;25.950;2022-08-19T14:37:13;12.88;;;8.40;;
20629;SDS011;17386;43.846;25.950;2022-08-19T14:39:42;8.95;;;5.90;;
20629;SDS011;17386;43.846;25.950;2022-08-19T14:42:08;9.77;;;6.70;;
20629;SDS011;17386;43.846;25.950;2022-08-19T14:44:34;13.50;;;7.30;;
20629;SDS011;17386;43.846;25.950;2022-08-19T14:47:00;8.57;;;6.35;;
20629;SDS011;17386;43.846;25.950;2022-08-19T14:49:26;9.65;;;6.32;;
20629;SDS011;17386;43.846;25.950;2022-08-19T14:51:51;13.75;;;6.78;;
20629;SDS011;17386;43.846;25.950;2022-08-19T14:54:17;11.38;;;6.70;;
20629;SDS011;17386;43.846;25.950;2022-08-19T14:56:42;10.50;;;6.15;;
20629;SDS011;17386;43.846;25.950;2022-08-19T14:59:08;10.75;;;6.50;;
20629;SDS011;17386;43.846;25.950;2022-08-19T15:01:33;12.90;;;7.82;;